createdAt,value
2018-03-24T00:02:20.140Z,66.63
2018-03-24T00:04:51.116Z,66.83
2018-03-24T00:07:22.098Z,66.61
2018-03-24T00:09:53.123Z,66.63
2018-03-24T00:12:24.108Z,66.79
2018-03-24T00:14:55.086Z,66.91
2018-03-24T00:17:26.095Z,66.83
2018-03-24T00:19:57.057Z,67.09
2018-03-24T00:22:28.063Z,67.30
2018-03-24T00:24:59.061Z,67.43
2018-03-24T00:27:30.029Z,67.60
2018-03-24T00:30:01.050Z,67.42
2018-03-24T00:32:32.044Z,67.46
2018-03-24T00:35:03.126Z,67.78
2018-03-24T00:37:34.092Z,68.52
2018-03-24T00:40:05.099Z,69.03
2018-03-24T00:42:36.029Z,69.20
2018-03-24T00:45:06.999Z,69.46
2018-03-24T00:47:37.987Z,69.50
2018-03-24T00:50:08.978Z,70.08
2018-03-24T00:52:39.990Z,69.75
2018-03-24T00:55:10.991Z,69.74
2018-03-24T00:57:42.003Z,70.04
2018-03-24T01:00:13.017Z,70.05
2018-03-24T01:02:44.009Z,69.94
2018-03-24T01:05:15.000Z,70.07
2018-03-24T01:07:46.015Z,70.41
2018-03-24T01:10:16.975Z,70.91
2018-03-24T01:12:47.974Z,71.23
2018-03-24T01:15:18.953Z,71.43
2018-03-24T01:17:49.982Z,71.25
2018-03-24T01:20:20.981Z,70.92
2018-03-24T01:22:51.985Z,70.60
2018-03-24T01:25:22.983Z,70.51
2018-03-24T01:27:53.936Z,70.55
2018-03-24T01:30:24.935Z,70.43
2018-03-24T01:32:55.898Z,70.14
2018-03-24T01:35:26.945Z,70.19
2018-03-24T01:37:57.893Z,70.09
2018-03-24T01:40:28.902Z,70.20
2018-03-24T01:42:59.858Z,70.22
2018-03-24T01:45:30.803Z,70.31
2018-03-24T01:48:01.778Z,70.46
2018-03-24T01:50:32.746Z,70.80
2018-03-24T01:53:03.786Z,70.88
2018-03-24T01:55:34.801Z,71.11
2018-03-24T01:58:05.800Z,71.17
2018-03-24T02:00:36.817Z,70.99
2018-03-24T02:03:07.833Z,70.92
2018-03-24T02:05:38.865Z,70.32
2018-03-24T02:08:09.903Z,70.18
2018-03-24T02:10:40.907Z,70.09
2018-03-24T02:13:11.916Z,70.02
2018-03-24T02:15:42.933Z,70.04
2018-03-24T02:18:13.941Z,70.11
2018-03-24T02:20:45.041Z,70.28
2018-03-24T02:23:16.004Z,70.30
2018-03-24T02:25:47.056Z,70.44
2018-03-24T02:28:18.051Z,70.67
2018-03-24T02:30:49.065Z,70.40
2018-03-24T02:33:20.110Z,70.01
2018-03-24T02:35:51.081Z,69.82
2018-03-24T02:38:22.112Z,69.71
2018-03-24T02:40:53.140Z,69.53
2018-03-24T02:43:24.174Z,69.70
2018-03-24T02:45:55.196Z,69.82
2018-03-24T02:48:26.209Z,69.76
2018-03-24T02:50:57.185Z,69.80
2018-03-24T02:53:28.279Z,70.32
2018-03-24T02:55:59.286Z,70.44
2018-03-24T02:58:30.303Z,70.59
2018-03-24T03:01:01.310Z,70.79
2018-03-24T03:03:32.324Z,70.91
2018-03-24T03:06:03.310Z,71.18
2018-03-24T03:08:34.317Z,71.31
2018-03-24T03:11:05.346Z,71.44
2018-03-24T03:13:36.335Z,71.75
2018-03-24T03:16:07.369Z,71.97
2018-03-24T03:18:38.321Z,72.23
2018-03-24T03:21:09.336Z,72.70
2018-03-24T03:23:40.307Z,73.02
2018-03-24T03:26:11.279Z,73.33
2018-03-24T03:28:42.278Z,73.46
2018-03-24T03:31:15.308Z,73.49
2018-03-24T03:33:46.283Z,73.38
2018-03-24T03:36:17.268Z,73.44
2018-03-24T03:38:48.268Z,73.40
2018-03-24T03:41:19.236Z,73.57
2018-03-24T03:43:50.219Z,73.36
2018-03-24T03:46:21.209Z,73.63
2018-03-24T03:48:52.184Z,73.89
2018-03-24T03:51:23.175Z,74.29
2018-03-24T03:53:54.189Z,74.63
2018-03-24T03:56:25.209Z,75.02
2018-03-24T03:58:56.204Z,75.17
2018-03-24T04:01:27.195Z,75.27
2018-03-24T04:03:58.217Z,75.21
2018-03-24T04:06:29.233Z,75.18
2018-03-24T04:09:00.176Z,75.29
2018-03-24T04:11:31.169Z,75.15
2018-03-24T04:14:02.147Z,74.95
2018-03-24T04:16:33.206Z,75.06
2018-03-24T04:19:04.169Z,74.95
2018-03-24T04:21:35.184Z,74.95
2018-03-24T04:24:06.169Z,75.42
2018-03-24T04:26:37.165Z,76.01
2018-03-24T04:29:08.164Z,76.61
2018-03-24T04:31:39.209Z,76.76
2018-03-24T04:34:10.185Z,77.19
2018-03-24T04:36:41.212Z,77.38
2018-03-24T04:39:12.192Z,77.39
2018-03-24T04:41:43.183Z,77.55
2018-03-24T04:44:14.163Z,77.48
2018-03-24T04:46:45.200Z,77.52
2018-03-24T04:49:16.201Z,77.58
2018-03-24T04:51:47.214Z,77.32
2018-03-24T04:54:18.220Z,77.11
2018-03-24T04:56:49.214Z,77.27
2018-03-24T04:59:20.232Z,77.31
2018-03-24T05:01:51.186Z,77.33
2018-03-24T05:04:22.173Z,77.42
2018-03-24T05:06:53.216Z,77.48
2018-03-24T05:09:24.225Z,77.43
2018-03-24T05:11:55.168Z,77.39
2018-03-24T05:14:26.196Z,77.40
2018-03-24T05:16:57.238Z,77.46
2018-03-24T05:19:28.225Z,77.23
2018-03-24T05:21:59.194Z,77.36
2018-03-24T05:24:37.028Z,77.12
2018-03-24T05:27:08.024Z,77.04
2018-03-24T05:29:38.982Z,76.92
2018-03-24T05:32:10.009Z,76.91
2018-03-24T05:34:40.980Z,76.73
2018-03-24T05:37:12.006Z,76.74
2018-03-24T05:39:42.973Z,76.42
2018-03-24T05:42:14.012Z,76.01
2018-03-24T05:44:45.016Z,75.59
2018-03-24T05:47:16.036Z,75.17
2018-03-24T05:49:47.017Z,74.76
2018-03-24T05:52:18.003Z,74.34
2018-03-24T05:54:49.008Z,74.03
2018-03-24T05:57:19.958Z,73.71
2018-03-24T05:59:50.973Z,73.00
2018-03-24T06:02:21.970Z,72.49
2018-03-24T06:04:52.971Z,72.11
2018-03-24T06:07:23.990Z,71.92
2018-03-24T06:09:55.008Z,71.53
2018-03-24T06:12:25.992Z,70.84
2018-03-24T06:14:56.988Z,69.64
2018-03-24T06:17:27.982Z,68.45
2018-03-24T06:19:58.987Z,68.51
2018-03-24T06:22:29.992Z,68.14
2018-03-24T06:25:00.977Z,68.05
2018-03-24T06:27:32.003Z,67.89
2018-03-24T06:30:03.981Z,67.05
2018-03-24T06:32:42.008Z,66.32
2018-03-24T06:35:12.999Z,66.14
2018-03-24T06:37:44.022Z,66.58
2018-03-24T06:40:15.047Z,66.74
2018-03-24T06:42:46.030Z,67.23
2018-03-24T06:45:17.074Z,67.30
2018-03-24T06:47:48.028Z,66.87
2018-03-24T06:50:19.043Z,66.29
2018-03-24T06:52:50.023Z,66.14
2018-03-24T06:55:21.064Z,66.00
2018-03-24T06:57:52.078Z,66.51
2018-03-24T07:00:23.078Z,66.52
2018-03-24T07:02:54.087Z,67.39
2018-03-24T07:05:25.116Z,67.34
2018-03-24T07:07:56.127Z,67.14
2018-03-24T07:10:27.150Z,66.33
2018-03-24T07:12:58.138Z,65.67
2018-03-24T07:15:29.144Z,65.36
2018-03-24T07:18:00.171Z,64.42
2018-03-24T07:20:31.145Z,64.15
2018-03-24T07:23:02.179Z,64.62
2018-03-24T07:25:33.171Z,64.28
2018-03-24T07:28:04.201Z,63.16
2018-03-24T07:30:35.164Z,62.15
2018-03-24T07:33:06.148Z,61.48
2018-03-24T07:35:37.146Z,61.25
2018-03-24T07:38:08.189Z,60.95
2018-03-24T07:40:39.208Z,60.52
2018-03-24T07:43:10.296Z,60.49
2018-03-24T07:45:41.311Z,59.98
2018-03-24T07:48:12.270Z,58.98
2018-03-24T07:50:43.301Z,58.63
2018-03-24T07:53:14.326Z,58.30
2018-03-24T07:55:45.399Z,56.45
2018-03-24T07:58:16.416Z,55.35
2018-03-24T08:00:47.384Z,54.56
2018-03-24T08:03:18.351Z,55.40
2018-03-24T08:05:49.712Z,55.38
2018-03-24T08:08:20.697Z,53.79
2018-03-24T08:10:51.706Z,53.08
2018-03-24T08:13:22.699Z,50.63
2018-03-24T08:15:53.681Z,47.50
2018-03-24T08:18:24.650Z,47.40
2018-03-24T08:20:55.668Z,48.29
2018-03-24T08:23:26.657Z,44.52
2018-03-24T08:25:57.640Z,40.80
2018-03-24T08:28:28.645Z,40.06
2018-03-24T08:30:59.624Z,42.03
2018-03-24T08:33:30.591Z,44.63
2018-03-24T08:36:01.558Z,46.65
2018-03-24T08:38:32.566Z,46.82
2018-03-24T08:41:03.540Z,47.44
2018-03-24T08:43:34.505Z,46.11
2018-03-24T08:46:05.561Z,42.51
2018-03-24T08:48:36.546Z,41.37
2018-03-24T08:51:10.474Z,41.99
2018-03-24T08:53:41.467Z,44.45
2018-03-24T08:56:12.474Z,42.68
2018-03-24T08:58:43.506Z,42.06
2018-03-24T09:01:14.542Z,35.79
2018-03-24T09:03:45.496Z,32.36
2018-03-24T09:06:16.472Z,27.21
2018-03-24T09:08:47.496Z,23.28
2018-03-24T09:11:18.471Z,22.00
2018-03-24T09:13:49.434Z,19.92
2018-03-24T09:16:20.429Z,19.86
2018-03-24T09:18:51.421Z,21.43
2018-03-24T09:21:22.431Z,21.30
2018-03-24T09:23:53.429Z,18.59
2018-03-24T09:26:24.423Z,17.60
2018-03-24T09:28:55.391Z,17.45
2018-03-24T09:31:26.338Z,17.96
2018-03-24T09:33:57.351Z,15.45
2018-03-24T09:36:28.352Z,15.75
2018-03-24T09:38:59.303Z,14.38
2018-03-24T09:41:30.308Z,13.32
2018-03-24T09:44:01.303Z,12.51
2018-03-24T09:46:32.300Z,11.52
2018-03-24T09:49:03.328Z,10.48
2018-03-24T09:51:34.327Z,11.91
2018-03-24T09:54:05.324Z,12.32
2018-03-24T09:56:36.333Z,12.84
2018-03-24T09:59:07.312Z,14.10
2018-03-24T10:01:38.326Z,13.87
2018-03-24T10:04:09.276Z,12.70
2018-03-24T10:06:40.279Z,10.47
2018-03-24T10:09:11.315Z,9.17
2018-03-24T10:11:42.304Z,8.14
2018-03-24T10:14:13.291Z,8.88
2018-03-24T10:16:44.324Z,10.84
2018-03-24T10:19:15.299Z,13.33
2018-03-24T10:24:54.405Z,15.11
2018-03-24T10:27:25.388Z,14.02
2018-03-24T10:29:56.360Z,14.32
2018-03-24T10:32:27.411Z,14.71
2018-03-24T10:35:04.548Z,13.31
2018-03-24T10:37:41.632Z,12.40
2018-03-24T10:40:12.582Z,11.10
2018-03-24T10:42:49.625Z,9.88
2018-03-24T10:45:20.612Z,9.32
2018-03-24T10:47:51.595Z,9.68
2018-03-24T10:50:22.567Z,9.97
2018-03-24T10:52:53.577Z,9.99
2018-03-24T10:55:24.550Z,10.30
2018-03-24T10:57:55.573Z,10.27
2018-03-24T11:00:32.425Z,9.17
2018-03-24T11:03:03.409Z,10.64
2018-03-24T11:05:34.459Z,12.08
2018-03-24T11:08:05.480Z,12.49
2018-03-24T11:10:36.501Z,12.33
2018-03-24T11:13:07.496Z,11.54
2018-03-24T11:15:38.505Z,10.68
2018-03-24T11:18:09.477Z,11.39
2018-03-24T11:20:40.475Z,12.75
2018-03-24T11:23:11.486Z,15.08
2018-03-24T11:25:42.472Z,16.22
2018-03-24T11:28:13.407Z,16.58
2018-03-24T11:30:44.367Z,17.44
2018-03-24T11:33:15.376Z,17.85
2018-03-24T11:35:46.389Z,18.83
2018-03-24T11:38:17.391Z,19.86
2018-03-24T11:40:48.378Z,20.61
2018-03-24T11:43:19.417Z,21.37
2018-03-24T11:45:50.462Z,22.73
2018-03-24T11:48:21.507Z,23.49
2018-03-24T11:50:52.477Z,23.47
2018-03-24T11:53:35.963Z,23.16
2018-03-24T11:56:06.953Z,23.37
2018-03-24T11:58:37.927Z,24.70
2018-03-24T12:01:08.924Z,24.74
2018-03-24T12:03:39.933Z,24.19
2018-03-24T12:06:10.932Z,23.32
2018-03-24T12:08:41.940Z,22.33
2018-03-24T12:11:12.923Z,22.22
2018-03-24T12:13:43.892Z,21.43
2018-03-24T12:16:14.873Z,20.21
2018-03-24T12:18:45.868Z,19.98
2018-03-24T12:21:16.864Z,20.30
2018-03-24T12:23:47.874Z,20.60
2018-03-24T12:26:18.834Z,19.99
2018-03-24T12:28:49.860Z,20.30
2018-03-24T12:31:20.827Z,20.46
2018-03-24T12:33:51.821Z,20.63
2018-03-24T12:36:22.789Z,20.26
2018-03-24T12:38:53.823Z,20.36
2018-03-24T12:41:24.828Z,19.66
2018-03-24T12:43:55.782Z,19.25
2018-03-24T12:46:26.788Z,19.36
2018-03-24T12:48:57.778Z,19.75
2018-03-24T12:51:28.775Z,20.32
2018-03-24T12:53:59.797Z,20.66
2018-03-24T12:56:30.804Z,22.15
2018-03-24T12:59:01.807Z,23.75
2018-03-24T13:01:32.780Z,25.00
2018-03-24T13:04:03.744Z,25.62
2018-03-24T13:06:34.739Z,26.00
2018-03-24T13:09:05.762Z,25.22
2018-03-24T13:11:36.778Z,24.61
2018-03-24T13:14:07.759Z,24.76
2018-03-24T13:16:38.729Z,24.17
2018-03-24T13:19:09.738Z,23.82
2018-03-24T13:21:40.727Z,24.28
2018-03-24T13:24:11.742Z,24.65
2018-03-24T13:26:43.632Z,24.73
2018-03-24T13:29:14.611Z,24.76
2018-03-24T13:31:45.611Z,24.84
2018-03-24T13:34:16.585Z,24.76
2018-03-24T13:36:47.597Z,24.52
2018-03-24T13:39:18.616Z,24.08
2018-03-24T13:41:49.584Z,24.14
2018-03-24T13:44:20.558Z,24.27
2018-03-24T13:46:51.578Z,25.50
2018-03-24T13:49:22.604Z,26.84
2018-03-24T13:51:53.586Z,28.00
2018-03-24T13:54:24.630Z,28.94
2018-03-24T13:56:55.633Z,29.92
2018-03-24T13:59:26.657Z,31.02
2018-03-24T14:01:57.658Z,31.52
2018-03-24T14:04:28.675Z,32.19
2018-03-24T14:06:59.645Z,31.76
2018-03-24T14:09:30.653Z,31.36
2018-03-24T14:12:01.674Z,29.97
2018-03-24T14:14:32.659Z,29.88
2018-03-24T14:17:03.674Z,29.74
2018-03-24T14:19:34.647Z,29.50
2018-03-24T14:22:05.660Z,29.02
2018-03-24T14:24:36.649Z,29.71
2018-03-24T14:27:07.693Z,30.89
2018-03-24T14:29:38.690Z,30.90
2018-03-24T14:32:09.668Z,31.19
2018-03-24T14:34:40.665Z,31.96
2018-03-24T14:37:11.682Z,32.40
2018-03-24T14:39:42.702Z,33.03
2018-03-24T14:42:13.700Z,32.98
2018-03-24T14:44:44.732Z,33.23
2018-03-24T14:47:15.784Z,33.35
2018-03-24T14:49:46.817Z,33.51
2018-03-24T14:52:17.820Z,33.41
2018-03-24T14:54:48.780Z,32.38
2018-03-24T14:57:19.744Z,31.80
2018-03-24T14:59:50.758Z,31.50
2018-03-24T15:02:21.810Z,31.38
2018-03-24T15:04:52.767Z,31.15
2018-03-24T15:07:23.803Z,30.58
2018-03-24T15:09:54.792Z,30.74
2018-03-24T15:12:25.792Z,31.03
2018-03-24T15:14:56.787Z,31.62
2018-03-24T15:17:27.786Z,31.88
2018-03-24T15:19:58.779Z,32.29
2018-03-24T15:22:29.749Z,32.41
2018-03-24T15:25:00.759Z,32.35
2018-03-24T15:27:31.766Z,32.30
2018-03-24T15:30:15.051Z,32.38
2018-03-24T15:36:02.376Z,32.78
2018-03-24T15:38:33.360Z,33.08
2018-03-24T15:41:04.369Z,33.38
2018-03-24T15:43:35.335Z,33.56
2018-03-24T15:46:06.385Z,34.04
2018-03-24T15:48:37.390Z,34.49
2018-03-24T15:51:08.390Z,34.45
2018-03-24T15:53:39.373Z,34.27
2018-03-24T15:56:10.409Z,34.34
2018-03-24T15:58:41.395Z,34.04
2018-03-24T16:01:12.395Z,34.51
2018-03-24T16:03:43.427Z,34.55
2018-03-24T16:06:14.413Z,34.44
2018-03-24T16:08:45.987Z,34.31
2018-03-24T16:11:17.002Z,34.34
2018-03-24T16:13:47.973Z,34.35
2018-03-24T16:16:18.975Z,34.70
2018-03-24T16:18:49.998Z,35.29
2018-03-24T16:21:21.060Z,36.06
2018-03-24T16:23:53.015Z,36.56
2018-03-24T16:26:23.966Z,36.33
2018-03-24T16:28:54.961Z,36.32
2018-03-24T16:31:26.005Z,36.56
2018-03-24T16:33:57.058Z,36.64
2018-03-24T16:36:28.061Z,36.81
2018-03-24T16:38:59.106Z,36.76
2018-03-24T16:41:30.096Z,36.84
2018-03-24T16:44:01.134Z,37.44
2018-03-24T16:46:32.147Z,37.96
2018-03-24T16:49:03.191Z,37.93
2018-03-24T16:51:34.273Z,38.07
2018-03-24T16:54:05.272Z,38.21
2018-03-24T16:56:36.252Z,38.19
2018-03-24T16:59:07.213Z,38.25
2018-03-24T17:01:38.226Z,38.85
2018-03-24T17:04:09.203Z,38.92
2018-03-24T17:06:40.206Z,38.94
2018-03-24T17:09:11.177Z,39.10
2018-03-24T17:11:42.193Z,39.15
2018-03-24T17:14:13.225Z,39.30
2018-03-24T17:16:44.238Z,39.33
2018-03-24T17:19:15.231Z,39.62
2018-03-24T17:21:46.232Z,40.03
2018-03-24T17:24:17.242Z,40.31
2018-03-24T17:26:48.254Z,40.38
2018-03-24T17:29:19.308Z,40.52
2018-03-24T17:31:50.263Z,41.11
2018-03-24T17:34:21.243Z,41.10
2018-03-24T17:36:52.209Z,41.38
2018-03-24T17:39:23.262Z,41.50
2018-03-24T17:41:54.312Z,41.65
2018-03-24T17:44:25.385Z,41.89
2018-03-24T17:46:56.357Z,42.22
2018-03-24T17:49:27.391Z,42.18
2018-03-24T17:51:58.413Z,42.43
2018-03-24T17:54:29.410Z,42.62
2018-03-24T17:57:00.468Z,42.78
2018-03-24T17:59:31.503Z,43.01
2018-03-24T18:02:02.486Z,43.78
2018-03-24T18:04:33.519Z,44.03
2018-03-24T18:07:04.587Z,44.22
2018-03-24T18:09:35.626Z,44.29
2018-03-24T18:12:06.632Z,44.78
2018-03-24T18:14:37.613Z,44.75
2018-03-24T18:17:08.654Z,44.69
2018-03-24T18:19:39.637Z,44.72
2018-03-24T18:22:10.642Z,44.78
2018-03-24T18:24:41.606Z,44.97
2018-03-24T18:27:12.616Z,45.23
2018-03-24T18:29:43.624Z,45.21
2018-03-24T18:32:14.581Z,45.20
2018-03-24T18:34:45.571Z,45.17
2018-03-24T18:37:16.582Z,45.59
2018-03-24T18:39:47.547Z,45.76
2018-03-24T18:42:18.553Z,46.15
2018-03-24T18:44:49.563Z,46.15
2018-03-24T18:47:20.588Z,46.69
2018-03-24T18:49:51.607Z,47.17
2018-03-24T18:52:22.584Z,47.41
2018-03-24T18:54:53.574Z,47.72
2018-03-24T18:57:24.551Z,47.84
2018-03-24T18:59:55.555Z,48.02
2018-03-24T19:02:26.552Z,48.34
2018-03-24T19:04:57.517Z,49.28
2018-03-24T19:07:28.491Z,49.15
2018-03-24T19:09:59.432Z,50.18
2018-03-24T19:12:30.466Z,50.61
2018-03-24T19:15:01.439Z,50.67
2018-03-24T19:17:39.280Z,50.23
2018-03-24T19:20:10.256Z,50.22
2018-03-24T19:22:41.287Z,50.40
2018-03-24T19:25:12.301Z,50.37
2018-03-24T19:27:43.312Z,50.76
2018-03-24T19:30:14.303Z,50.90
2018-03-24T19:32:45.276Z,50.97
2018-03-24T19:35:16.285Z,50.93
2018-03-24T19:37:47.309Z,51.22
2018-03-24T19:40:18.306Z,51.32
2018-03-24T19:42:49.299Z,51.16
2018-03-24T19:45:20.306Z,51.50
2018-03-24T19:47:51.370Z,51.45
2018-03-24T19:50:22.386Z,51.45
2018-03-24T19:52:53.347Z,51.56
2018-03-24T19:55:24.390Z,51.67
2018-03-24T19:57:55.403Z,51.52
2018-03-24T20:00:26.401Z,51.58
2018-03-24T20:02:57.365Z,51.92
2018-03-24T20:05:28.322Z,51.66
2018-03-24T20:07:59.332Z,51.87
2018-03-24T20:10:30.290Z,52.45
2018-03-24T20:13:01.296Z,53.11
2018-03-24T20:15:32.324Z,53.27
2018-03-24T20:18:03.416Z,54.25
2018-03-24T20:20:34.437Z,54.77
2018-03-24T20:23:05.455Z,55.75
2018-03-24T20:25:36.428Z,57.20
2018-03-24T20:28:07.463Z,56.85
2018-03-24T20:30:38.415Z,56.78
2018-03-24T20:33:09.390Z,56.98
2018-03-24T20:35:40.421Z,57.08
2018-03-24T20:38:11.430Z,56.54
2018-03-24T20:40:42.439Z,56.09
2018-03-24T20:43:13.446Z,56.04
2018-03-24T20:45:44.468Z,55.96
2018-03-24T20:48:15.466Z,55.88
2018-03-24T20:50:46.469Z,55.65
2018-03-24T20:53:17.441Z,55.47
2018-03-24T20:55:48.445Z,55.36
2018-03-24T20:58:19.466Z,55.35
2018-03-24T21:00:50.489Z,55.45
2018-03-24T21:03:21.501Z,55.85
2018-03-24T21:05:52.514Z,56.15
2018-03-24T21:08:23.492Z,56.34
2018-03-24T21:10:54.458Z,56.34
2018-03-24T21:13:25.484Z,56.77
2018-03-24T21:15:56.469Z,56.61
2018-03-24T21:18:27.486Z,56.28
2018-03-24T21:20:58.463Z,56.03
2018-03-24T21:23:29.505Z,56.09
2018-03-24T21:26:00.507Z,56.04
2018-03-24T21:28:31.482Z,55.75
2018-03-24T21:31:02.471Z,55.81
2018-03-24T21:33:33.471Z,56.01
2018-03-24T21:36:04.460Z,56.02
2018-03-24T21:38:35.480Z,56.12
2018-03-24T21:41:06.479Z,56.15
2018-03-24T21:43:37.538Z,56.08
2018-03-24T21:46:08.579Z,55.98
2018-03-24T21:48:39.546Z,56.16
2018-03-24T21:51:10.558Z,56.48
2018-03-24T21:53:41.554Z,56.26
2018-03-24T21:56:12.552Z,55.90
2018-03-24T21:58:43.554Z,55.96
2018-03-24T22:01:14.513Z,55.70
2018-03-24T22:03:45.493Z,55.82
2018-03-24T22:06:16.495Z,56.25
2018-03-24T22:08:47.527Z,56.24
2018-03-24T22:11:18.503Z,56.25
2018-03-24T22:13:49.487Z,56.47
2018-03-24T22:16:20.490Z,56.91
2018-03-24T22:18:51.427Z,57.75
2018-03-24T22:21:22.426Z,57.73
2018-03-24T22:23:53.373Z,58.11
2018-03-24T22:26:24.340Z,58.28
2018-03-24T22:28:55.350Z,58.27
2018-03-24T22:31:26.344Z,58.55
2018-03-24T22:33:57.308Z,58.50
2018-03-24T22:36:28.308Z,58.96
2018-03-24T22:38:59.325Z,59.49
2018-03-24T22:41:30.349Z,59.08
2018-03-24T22:44:01.372Z,58.65
2018-03-24T22:46:32.373Z,58.53
2018-03-24T22:49:03.415Z,58.19
2018-03-24T22:51:34.398Z,58.06
2018-03-24T22:54:05.408Z,57.93
2018-03-24T22:56:36.396Z,57.99
2018-03-24T22:59:07.393Z,57.99
2018-03-24T23:01:38.383Z,58.13
2018-03-24T23:04:09.429Z,57.86
2018-03-24T23:06:40.429Z,57.82
2018-03-24T23:09:11.486Z,57.90
2018-03-24T23:11:42.446Z,58.11
2018-03-24T23:14:13.455Z,58.71
2018-03-24T23:16:44.432Z,59.05
2018-03-24T23:19:15.439Z,59.64
2018-03-24T23:21:46.454Z,59.43
2018-03-24T23:24:17.459Z,59.24
2018-03-24T23:26:48.478Z,59.11
2018-03-24T23:29:19.509Z,59.73
2018-03-24T23:31:50.515Z,59.82
2018-03-24T23:34:21.493Z,60.07
2018-03-24T23:36:52.471Z,59.86
2018-03-24T23:39:23.479Z,60.24
2018-03-24T23:41:54.551Z,60.76
2018-03-24T23:44:25.577Z,60.76
2018-03-24T23:46:56.523Z,60.85
2018-03-24T23:49:27.507Z,60.94
2018-03-24T23:51:58.465Z,61.08
2018-03-24T23:54:29.474Z,60.83
2018-03-24T23:57:00.487Z,60.90
2018-03-24T23:59:31.486Z,60.89
